Главная страница
METAR-TAF:

METAR-TAF

Аэропорты :

Williamsport, Пенсильвания, США

широта: 41-14-30N, долгота: 076-55-15W, высота над уровнем моря: 161 м

Текущие метеонаблюдения

Эта сводка был подготовлена 1 час и 10 минут назад, в 18:54 UTC
Ветер 20 Узел от западный с порывами до 32 Узел
Температура 12°C
Влажность 54%
Давление 1000 hPa
Видимость: 16.1 км
Сплошная облачность на высоте 3800 фута

METAR: KIPT 171854Z 28020G32KT 10SM OVC038 12/03 A2953 RMK AO2 PK WND 28033/1822 SLP000 T01170033

Время: 16:04 (20:04 UTC)

Прогноз

Эта сводка был подготовлена 2 часа и 16 минут назад, в 17:48 UTC
Прогноз действительный с 17-го 18 UTC до 18-го 18 UTC
Ветер 20 Узел от западный с порывами до 30 Узел
Видимость: 10 км
Рассеянная облачность на высоте 4000 фута
С 18-го 0300 UTC
Ветер 10 Узел от западно-северо-западный с порывами до 15 Узел
Видимость: 10 км
Рассеянная облачность на высоте 5000 фута

TAF: KIPT 171748Z 1718/1818 28020G30KT P6SM BKN040 FM180300 29010G15KT P6SM BKN050

Метеонаблюдения и прогнозы для более 4000 аэропортов (сводки METAR и TAF).

Имеющиеся станции представлены на карте желтыми и красными точками.

Чтобы увидеть название станции, наведите на нее мышь.

Затем щелкните, чтобы увидеть метеонаблюдения и метеопрогнозы.

Управление картой: чтобы увеличить масштаб, щелкните зеленые кнопки с черным крестиком; чтобы уменьшить масштаб, щелкните зеленую кнопку с тире; для просмотра соседних карт щелкайте зеленые стрелки.


METAR-TAF: